sensor_id;sensor_type;location;lat;lon;timestamp;temperature;humidity
55211;DHT22;41082;52.822;6.666;2023-01-15T00:00:50;7.20;99.90
55211;DHT22;41082;52.822;6.666;2023-01-15T00:03:16;7.10;99.90
55211;DHT22;41082;52.822;6.666;2023-01-15T00:05:42;7.20;99.90
55211;DHT22;41082;52.822;6.666;2023-01-15T00:08:07;7.20;99.90
55211;DHT22;41082;52.822;6.666;2023-01-15T00:10:34;7.20;99.90
55211;DHT22;41082;52.822;6.666;2023-01-15T00:13:00;7.20;99.90
55211;DHT22;41082;52.822;6.666;2023-01-15T00:15:26;7.20;99.90
55211;DHT22;41082;52.822;6.666;2023-01-15T00:17:51;7.10;99.90
55211;DHT22;41082;52.822;6.666;2023-01-15T00:20:17;7.10;99.90
55211;DHT22;41082;52.822;6.666;2023-01-15T00:22:43;7.10;99.90
55211;DHT22;41082;52.822;6.666;2023-01-15T00:25:09;7.20;99.90
55211;DHT22;41082;52.822;6.666;2023-01-15T00:27:54;7.10;99.90
55211;DHT22;41082;52.822;6.666;2023-01-15T00:30:19;7.10;99.90
55211;DHT22;41082;52.822;6.666;2023-01-15T00:32:45;7.00;99.90
55211;DHT22;41082;52.822;6.666;2023-01-15T00:35:13;7.10;99.90
55211;DHT22;41082;52.822;6.666;2023-01-15T00:37:39;7.10;99.90
55211;DHT22;41082;52.822;6.666;2023-01-15T00:40:04;7.20;99.90
55211;DHT22;41082;52.822;6.666;2023-01-15T00:42:30;7.10;99.90
55211;DHT22;41082;52.822;6.666;2023-01-15T00:44:56;7.10;99.90
55211;DHT22;41082;52.822;6.666;2023-01-15T00:47:21;7.10;99.90
55211;DHT22;41082;52.822;6.666;2023-01-15T00:49:47;7.20;99.90
55211;DHT22;41082;52.822;6.666;2023-01-15T00:52:14;7.20;99.90
55211;DHT22;41082;52.822;6.666;2023-01-15T00:54:39;7.20;99.90
55211;DHT22;41082;52.822;6.666;2023-01-15T00:57:05;7.20;99.90
55211;DHT22;41082;52.822;6.666;2023-01-15T00:59:30;7.20;99.90
55211;DHT22;41082;52.822;6.666;2023-01-15T01:01:56;7.20;99.90
55211;DHT22;41082;52.822;6.666;2023-01-15T01:04:22;7.20;99.90
55211;DHT22;41082;52.822;6.666;2023-01-15T01:06:47;7.20;99.90
55211;DHT22;41082;52.822;6.666;2023-01-15T01:09:14;7.20;99.90
55211;DHT22;41082;52.822;6.666;2023-01-15T01:11:40;7.20;99.90
55211;DHT22;41082;52.822;6.666;2023-01-15T01:14:05;7.20;99.90
55211;DHT22;41082;52.822;6.666;2023-01-15T01:16:36;7.20;99.90
55211;DHT22;41082;52.822;6.666;2023-01-15T01:19:06;7.20;99.90
55211;DHT22;41082;52.822;6.666;2023-01-15T01:21:34;7.20;99.90
55211;DHT22;41082;52.822;6.666;2023-01-15T01:24:00;7.20;99.90
55211;DHT22;41082;52.822;6.666;2023-01-15T01:26:27;7.20;99.90
55211;DHT22;41082;52.822;6.666;2023-01-15T01:28:55;7.20;99.90
55211;DHT22;41082;52.822;6.666;2023-01-15T01:31:21;7.20;99.90
55211;DHT22;41082;52.822;6.666;2023-01-15T01:33:52;7.20;99.90
55211;DHT22;41082;52.822;6.666;2023-01-15T01:36:19;7.20;99.90
55211;DHT22;41082;52.822;6.666;2023-01-15T01:38:48;7.10;99.90
55211;DHT22;41082;52.822;6.666;2023-01-15T01:41:15;7.20;99.90
55211;DHT22;41082;52.822;6.666;2023-01-15T01:46:27;7.20;99.90
55211;DHT22;41082;52.822;6.666;2023-01-15T01:48:56;7.10;99.90
55211;DHT22;41082;52.822;6.666;2023-01-15T01:51:26;7.10;99.90
55211;DHT22;41082;52.822;6.666;2023-01-15T01:53:54;7.10;99.90
55211;DHT22;41082;52.822;6.666;2023-01-15T01:56:20;7.10;99.90
55211;DHT22;41082;52.822;6.666;2023-01-15T01:58:51;7.20;99.90
55211;DHT22;41082;52.822;6.666;2023-01-15T02:01:18;7.10;99.90
55211;DHT22;41082;52.822;6.666;2023-01-15T02:03:43;7.20;99.90
55211;DHT22;41082;52.822;6.666;2023-01-15T02:06:12;7.20;99.90
55211;DHT22;41082;52.822;6.666;2023-01-15T02:08:38;7.10;99.90
55211;DHT22;41082;52.822;6.666;2023-01-15T02:11:05;7.10;99.90
55211;DHT22;41082;52.822;6.666;2023-01-15T02:13:54;7.10;99.90
55211;DHT22;41082;52.822;6.666;2023-01-15T02:22:20;7.10;99.90
55211;DHT22;41082;52.822;6.666;2023-01-15T02:27:24;7.00;99.90
55211;DHT22;41082;52.822;6.666;2023-01-15T02:30:02;7.10;99.90
55211;DHT22;41082;52.822;6.666;2023-01-15T02:32:34;7.10;99.90
55211;DHT22;41082;52.822;6.666;2023-01-15T02:35:16;7.10;99.90
55211;DHT22;41082;52.822;6.666;2023-01-15T02:37:47;7.10;99.90
55211;DHT22;41082;52.822;6.666;2023-01-15T02:40:14;7.10;99.90
55211;DHT22;41082;52.822;6.666;2023-01-15T02:42:41;7.10;99.90
55211;DHT22;41082;52.822;6.666;2023-01-15T02:45:08;7.00;99.90
55211;DHT22;41082;52.822;6.666;2023-01-15T02:47:37;7.10;99.90
55211;DHT22;41082;52.822;6.666;2023-01-15T02:50:07;7.10;99.90
55211;DHT22;41082;52.822;6.666;2023-01-15T02:52:37;7.00;99.90
55211;DHT22;41082;52.822;6.666;2023-01-15T02:55:10;7.00;99.90
55211;DHT22;41082;52.822;6.666;2023-01-15T02:57:38;7.00;99.90
55211;DHT22;41082;52.822;6.666;2023-01-15T03:00:09;7.00;99.90
55211;DHT22;41082;52.822;6.666;2023-01-15T03:02:46;7.00;99.90
55211;DHT22;41082;52.822;6.666;2023-01-15T03:05:23;6.90;99.90
55211;DHT22;41082;52.822;6.666;2023-01-15T03:07:56;7.00;99.90
55211;DHT22;41082;52.822;6.666;2023-01-15T03:10:46;7.00;99.90
55211;DHT22;41082;52.822;6.666;2023-01-15T03:16:03;6.90;99.90
55211;DHT22;41082;52.822;6.666;2023-01-15T03:18:55;6.90;99.90
55211;DHT22;41082;52.822;6.666;2023-01-15T03:21:30;7.00;99.90
55211;DHT22;41082;52.822;6.666;2023-01-15T03:24:00;6.90;99.90
55211;DHT22;41082;52.822;6.666;2023-01-15T03:26:27;6.90;99.90
55211;DHT22;41082;52.822;6.666;2023-01-15T03:28:54;7.00;99.90
55211;DHT22;41082;52.822;6.666;2023-01-15T03:31:20;6.90;99.90
55211;DHT22;41082;52.822;6.666;2023-01-15T03:33:46;6.90;99.90
55211;DHT22;41082;52.822;6.666;2023-01-15T03:36:11;6.90;99.90
55211;DHT22;41082;52.822;6.666;2023-01-15T03:38:38;6.90;99.90
55211;DHT22;41082;52.822;6.666;2023-01-15T03:41:28;6.90;99.90
55211;DHT22;41082;52.822;6.666;2023-01-15T03:49:55;6.90;99.90
55211;DHT22;41082;52.822;6.666;2023-01-15T03:55:06;7.00;99.90
55211;DHT22;41082;52.822;6.666;2023-01-15T03:57:42;7.00;99.90
55211;DHT22;41082;52.822;6.666;2023-01-15T04:00:30;7.00;99.90
55211;DHT22;41082;52.822;6.666;2023-01-15T04:02:59;6.90;99.90
55211;DHT22;41082;52.822;6.666;2023-01-15T04:05:27;6.90;99.90
55211;DHT22;41082;52.822;6.666;2023-01-15T04:07:53;6.90;99.90
55211;DHT22;41082;52.822;6.666;2023-01-15T04:10:21;6.80;99.90
55211;DHT22;41082;52.822;6.666;2023-01-15T04:12:46;6.80;99.90
55211;DHT22;41082;52.822;6.666;2023-01-15T04:15:12;6.70;99.90
55211;DHT22;41082;52.822;6.666;2023-01-15T04:17:38;6.70;99.90
55211;DHT22;41082;52.822;6.666;2023-01-15T04:20:05;6.60;99.90
55211;DHT22;41082;52.822;6.666;2023-01-15T04:22:31;6.60;99.90
55211;DHT22;41082;52.822;6.666;2023-01-15T04:24:57;6.60;99.90
55211;DHT22;41082;52.822;6.666;2023-01-15T04:27:23;6.50;99.90
55211;DHT22;41082;52.822;6.666;2023-01-15T04:29:48;6.50;99.90
55211;DHT22;41082;52.822;6.666;2023-01-15T04:32:14;6.50;99.90
55211;DHT22;41082;52.822;6.666;2023-01-15T04:34:39;6.50;99.90
55211;DHT22;41082;52.822;6.666;2023-01-15T04:37:05;6.60;99.90
55211;DHT22;41082;52.822;6.666;2023-01-15T04:39:31;6.60;99.90
55211;DHT22;41082;52.822;6.666;2023-01-15T04:41:57;6.60;99.90
55211;DHT22;41082;52.822;6.666;2023-01-15T04:44:41;6.60;99.90
55211;DHT22;41082;52.822;6.666;2023-01-15T04:47:07;6.70;99.90
55211;DHT22;41082;52.822;6.666;2023-01-15T04:49:33;6.60;99.90
55211;DHT22;41082;52.822;6.666;2023-01-15T04:51:59;6.60;99.90
55211;DHT22;41082;52.822;6.666;2023-01-15T04:54:25;6.70;99.90
55211;DHT22;41082;52.822;6.666;2023-01-15T04:56:52;6.60;99.90
55211;DHT22;41082;52.822;6.666;2023-01-15T04:59:21;6.70;99.90
55211;DHT22;41082;52.822;6.666;2023-01-15T05:01:47;6.70;99.90
55211;DHT22;41082;52.822;6.666;2023-01-15T05:04:13;6.70;99.90
55211;DHT22;41082;52.822;6.666;2023-01-15T05:06:39;6.60;99.90
55211;DHT22;41082;52.822;6.666;2023-01-15T05:09:05;6.60;99.90
55211;DHT22;41082;52.822;6.666;2023-01-15T05:11:33;6.60;99.90
55211;DHT22;41082;52.822;6.666;2023-01-15T05:13:59;6.60;99.90
55211;DHT22;41082;52.822;6.666;2023-01-15T05:16:26;6.60;99.90
55211;DHT22;41082;52.822;6.666;2023-01-15T05:18:54;6.60;99.90
55211;DHT22;41082;52.822;6.666;2023-01-15T05:21:26;6.60;99.90
55211;DHT22;41082;52.822;6.666;2023-01-15T05:23:54;6.50;99.90
55211;DHT22;41082;52.822;6.666;2023-01-15T05:26:20;6.60;99.90
55211;DHT22;41082;52.822;6.666;2023-01-15T05:28:47;6.60;99.90
55211;DHT22;41082;52.822;6.666;2023-01-15T05:31:16;6.60;99.90
55211;DHT22;41082;52.822;6.666;2023-01-15T05:33:43;6.60;99.90
55211;DHT22;41082;52.822;6.666;2023-01-15T05:36:15;6.60;99.90
55211;DHT22;41082;52.822;6.666;2023-01-15T05:38:41;6.60;99.90
55211;DHT22;41082;52.822;6.666;2023-01-15T05:41:09;6.50;99.90
55211;DHT22;41082;52.822;6.666;2023-01-15T05:43:54;6.50;99.90
55211;DHT22;41082;52.822;6.666;2023-01-15T05:46:20;6.50;99.90
55211;DHT22;41082;52.822;6.666;2023-01-15T05:48:46;6.50;99.90
55211;DHT22;41082;52.822;6.666;2023-01-15T05:51:12;6.50;99.90
55211;DHT22;41082;52.822;6.666;2023-01-15T05:53:37;6.50;99.90
55211;DHT22;41082;52.822;6.666;2023-01-15T05:56:03;6.40;99.90
55211;DHT22;41082;52.822;6.666;2023-01-15T05:58:30;6.40;99.90
55211;DHT22;41082;52.822;6.666;2023-01-15T06:00:56;6.40;99.90
55211;DHT22;41082;52.822;6.666;2023-01-15T06:03:22;6.40;99.90
55211;DHT22;41082;52.822;6.666;2023-01-15T06:05:55;6.30;99.90
55211;DHT22;41082;52.822;6.666;2023-01-15T06:08:22;6.40;99.90
55211;DHT22;41082;52.822;6.666;2023-01-15T06:10:49;6.50;99.90
55211;DHT22;41082;52.822;6.666;2023-01-15T06:13:15;6.50;99.90
55211;DHT22;41082;52.822;6.666;2023-01-15T06:15:42;6.40;99.90
55211;DHT22;41082;52.822;6.666;2023-01-15T06:18:08;6.40;99.90
55211;DHT22;41082;52.822;6.666;2023-01-15T06:20:35;6.30;99.90
55211;DHT22;41082;52.822;6.666;2023-01-15T06:23:01;6.30;99.90
55211;DHT22;41082;52.822;6.666;2023-01-15T06:25:26;6.20;99.90
55211;DHT22;41082;52.822;6.666;2023-01-15T06:27:52;6.20;99.90
55211;DHT22;41082;52.822;6.666;2023-01-15T06:30:17;6.10;99.90
55211;DHT22;41082;52.822;6.666;2023-01-15T06:32:43;6.00;99.90
55211;DHT22;41082;52.822;6.666;2023-01-15T06:35:09;6.00;99.90
55211;DHT22;41082;52.822;6.666;2023-01-15T06:37:34;5.90;99.90
55211;DHT22;41082;52.822;6.666;2023-01-15T06:40:00;5.90;99.90
55211;DHT22;41082;52.822;6.666;2023-01-15T06:42:26;6.00;99.90
55211;DHT22;41082;52.822;6.666;2023-01-15T06:45:11;6.10;99.90
55211;DHT22;41082;52.822;6.666;2023-01-15T06:47:56;6.00;99.90
55211;DHT22;41082;52.822;6.666;2023-01-15T06:50:23;6.00;99.90
55211;DHT22;41082;52.822;6.666;2023-01-15T06:52:48;6.00;99.90
55211;DHT22;41082;52.822;6.666;2023-01-15T06:55:14;5.90;99.90
55211;DHT22;41082;52.822;6.666;2023-01-15T06:57:40;5.90;99.90
55211;DHT22;41082;52.822;6.666;2023-01-15T07:00:07;5.80;99.90
55211;DHT22;41082;52.822;6.666;2023-01-15T07:02:33;5.90;99.90
55211;DHT22;41082;52.822;6.666;2023-01-15T07:04:59;5.90;99.90
55211;DHT22;41082;52.822;6.666;2023-01-15T07:07:26;6.00;99.90
55211;DHT22;41082;52.822;6.666;2023-01-15T07:09:52;5.90;99.90
55211;DHT22;41082;52.822;6.666;2023-01-15T07:12:17;6.00;99.90
55211;DHT22;41082;52.822;6.666;2023-01-15T07:14:43;6.00;99.90
55211;DHT22;41082;52.822;6.666;2023-01-15T07:17:09;6.10;99.90
55211;DHT22;41082;52.822;6.666;2023-01-15T07:19:35;6.10;99.90
55211;DHT22;41082;52.822;6.666;2023-01-15T07:22:01;6.10;99.90
55211;DHT22;41082;52.822;6.666;2023-01-15T07:24:26;6.00;99.90
55211;DHT22;41082;52.822;6.666;2023-01-15T07:26:52;6.00;99.90
55211;DHT22;41082;52.822;6.666;2023-01-15T07:29:17;5.90;99.90
55211;DHT22;41082;52.822;6.666;2023-01-15T07:31:43;5.90;99.90
55211;DHT22;41082;52.822;6.666;2023-01-15T07:34:09;5.90;99.90
55211;DHT22;41082;52.822;6.666;2023-01-15T07:36:36;5.90;99.90
55211;DHT22;41082;52.822;6.666;2023-01-15T07:39:05;5.80;99.90
55211;DHT22;41082;52.822;6.666;2023-01-15T07:41:31;5.80;99.90
55211;DHT22;41082;52.822;6.666;2023-01-15T07:44:15;5.90;99.90
55211;DHT22;41082;52.822;6.666;2023-01-15T07:47:00;5.80;99.90
55211;DHT22;41082;52.822;6.666;2023-01-15T07:49:44;5.80;99.90
55211;DHT22;41082;52.822;6.666;2023-01-15T07:52:11;5.70;99.90
55211;DHT22;41082;52.822;6.666;2023-01-15T07:54:37;5.60;99.90
55211;DHT22;41082;52.822;6.666;2023-01-15T07:57:03;5.60;99.90
55211;DHT22;41082;52.822;6.666;2023-01-15T07:59:29;5.60;99.90
55211;DHT22;41082;52.822;6.666;2023-01-15T08:01:54;5.60;99.90
55211;DHT22;41082;52.822;6.666;2023-01-15T08:04:20;5.60;99.90
55211;DHT22;41082;52.822;6.666;2023-01-15T08:06:46;5.60;99.90
55211;DHT22;41082;52.822;6.666;2023-01-15T08:09:11;5.70;99.90
55211;DHT22;41082;52.822;6.666;2023-01-15T08:11:37;5.60;99.90
55211;DHT22;41082;52.822;6.666;2023-01-15T08:14:21;5.60;99.90
55211;DHT22;41082;52.822;6.666;2023-01-15T08:17:05;5.60;99.90
55211;DHT22;41082;52.822;6.666;2023-01-15T08:19:31;5.60;99.90
55211;DHT22;41082;52.822;6.666;2023-01-15T08:21:57;5.70;99.90
55211;DHT22;41082;52.822;6.666;2023-01-15T08:24:24;5.70;99.90
55211;DHT22;41082;52.822;6.666;2023-01-15T08:26:51;5.60;99.90
55211;DHT22;41082;52.822;6.666;2023-01-15T08:29:17;5.60;99.90
55211;DHT22;41082;52.822;6.666;2023-01-15T08:31:43;5.60;99.90
55211;DHT22;41082;52.822;6.666;2023-01-15T08:34:09;5.60;99.90
55211;DHT22;41082;52.822;6.666;2023-01-15T08:36:34;5.70;99.90
55211;DHT22;41082;52.822;6.666;2023-01-15T08:39:00;5.70;99.90
55211;DHT22;41082;52.822;6.666;2023-01-15T08:41:26;5.80;99.90
55211;DHT22;41082;52.822;6.666;2023-01-15T08:43:52;5.80;99.90
55211;DHT22;41082;52.822;6.666;2023-01-15T08:46:17;5.80;99.90
55211;DHT22;41082;52.822;6.666;2023-01-15T08:48:43;5.80;99.90
55211;DHT22;41082;52.822;6.666;2023-01-15T08:51:10;5.80;99.90
55211;DHT22;41082;52.822;6.666;2023-01-15T08:53:35;5.80;99.90
55211;DHT22;41082;52.822;6.666;2023-01-15T08:56:01;5.90;99.90
55211;DHT22;41082;52.822;6.666;2023-01-15T08:58:31;5.90;99.90
55211;DHT22;41082;52.822;6.666;2023-01-15T09:01:04;5.90;99.90
55211;DHT22;41082;52.822;6.666;2023-01-15T09:03:30;5.90;99.90
55211;DHT22;41082;52.822;6.666;2023-01-15T09:06:00;5.90;99.90
55211;DHT22;41082;52.822;6.666;2023-01-15T09:08:26;5.90;99.90
55211;DHT22;41082;52.822;6.666;2023-01-15T09:10:56;5.90;99.90
55211;DHT22;41082;52.822;6.666;2023-01-15T09:13:23;6.00;99.90
55211;DHT22;41082;52.822;6.666;2023-01-15T09:15:49;6.00;99.90
55211;DHT22;41082;52.822;6.666;2023-01-15T09:18:14;5.80;99.90
55211;DHT22;41082;52.822;6.666;2023-01-15T09:20:44;5.60;99.90
55211;DHT22;41082;52.822;6.666;2023-01-15T09:23:09;5.50;99.90
55211;DHT22;41082;52.822;6.666;2023-01-15T09:25:35;5.30;99.90
55211;DHT22;41082;52.822;6.666;2023-01-15T09:28:01;5.30;99.90
55211;DHT22;41082;52.822;6.666;2023-01-15T09:30:26;5.30;99.90
55211;DHT22;41082;52.822;6.666;2023-01-15T09:32:53;5.20;99.90
55211;DHT22;41082;52.822;6.666;2023-01-15T09:35:18;5.00;99.90
55211;DHT22;41082;52.822;6.666;2023-01-15T09:37:52;5.10;99.90
55211;DHT22;41082;52.822;6.666;2023-01-15T09:40:50;5.00;99.90
55211;DHT22;41082;52.822;6.666;2023-01-15T09:43:42;4.90;99.90
55211;DHT22;41082;52.822;6.666;2023-01-15T09:52:21;4.80;99.90
55211;DHT22;41082;52.822;6.666;2023-01-15T09:55:08;4.80;99.90
55211;DHT22;41082;52.822;6.666;2023-01-15T09:57:36;4.80;99.90
55211;DHT22;41082;52.822;6.666;2023-01-15T10:00:03;4.80;99.90
55211;DHT22;41082;52.822;6.666;2023-01-15T10:02:44;4.80;99.90
55211;DHT22;41082;52.822;6.666;2023-01-15T10:05:17;4.90;99.90
55211;DHT22;41082;52.822;6.666;2023-01-15T10:08:01;5.00;99.90
55211;DHT22;41082;52.822;6.666;2023-01-15T10:10:37;5.10;99.90
55211;DHT22;41082;52.822;6.666;2023-01-15T10:15:56;5.20;99.90
55211;DHT22;41082;52.822;6.666;2023-01-15T10:18:24;5.20;99.90
55211;DHT22;41082;52.822;6.666;2023-01-15T10:29:08;5.30;99.90
55211;DHT22;41082;52.822;6.666;2023-01-15T10:31:52;5.30;99.90
55211;DHT22;41082;52.822;6.666;2023-01-15T10:45:25;5.30;99.90
55211;DHT22;41082;52.822;6.666;2023-01-15T10:48:09;5.60;99.90
55211;DHT22;41082;52.822;6.666;2023-01-15T10:50:36;5.60;99.90
55211;DHT22;41082;52.822;6.666;2023-01-15T10:53:29;5.70;99.90
55211;DHT22;41082;52.822;6.666;2023-01-15T10:56:14;5.70;99.90
55211;DHT22;41082;52.822;6.666;2023-01-15T10:58:51;5.80;99.90
55211;DHT22;41082;52.822;6.666;2023-01-15T11:01:20;5.80;99.90
55211;DHT22;41082;52.822;6.666;2023-01-15T11:03:48;5.80;99.90
55211;DHT22;41082;52.822;6.666;2023-01-15T11:06:19;5.80;99.90
55211;DHT22;41082;52.822;6.666;2023-01-15T11:08:51;5.80;99.90
55211;DHT22;41082;52.822;6.666;2023-01-15T11:14:18;5.80;99.90
55211;DHT22;41082;52.822;6.666;2023-01-15T11:17:02;5.80;99.90
55211;DHT22;41082;52.822;6.666;2023-01-15T11:19:51;5.90;99.90
55211;DHT22;41082;52.822;6.666;2023-01-15T11:22:18;5.90;99.90
55211;DHT22;41082;52.822;6.666;2023-01-15T11:25:00;6.00;99.90
55211;DHT22;41082;52.822;6.666;2023-01-15T11:27:31;6.20;99.90
55211;DHT22;41082;52.822;6.666;2023-01-15T11:29:59;6.30;99.90
55211;DHT22;41082;52.822;6.666;2023-01-15T11:35:15;6.30;99.90
55211;DHT22;41082;52.822;6.666;2023-01-15T11:37:41;6.40;99.90
55211;DHT22;41082;52.822;6.666;2023-01-15T11:40:16;6.50;99.90
55211;DHT22;41082;52.822;6.666;2023-01-15T11:42:46;6.60;99.90
55211;DHT22;41082;52.822;6.666;2023-01-15T11:45:31;6.70;99.90
55211;DHT22;41082;52.822;6.666;2023-01-15T11:48:18;6.80;99.90
55211;DHT22;41082;52.822;6.666;2023-01-15T11:51:07;6.90;99.90
55211;DHT22;41082;52.822;6.666;2023-01-15T11:53:42;7.00;99.90
55211;DHT22;41082;52.822;6.666;2023-01-15T11:56:14;7.00;99.90
55211;DHT22;41082;52.822;6.666;2023-01-15T11:59:01;7.10;99.90
55211;DHT22;41082;52.822;6.666;2023-01-15T12:01:33;7.20;99.90
55211;DHT22;41082;52.822;6.666;2023-01-15T12:04:02;7.20;99.90
55211;DHT22;41082;52.822;6.666;2023-01-15T12:06:30;7.20;99.90
55211;DHT22;41082;52.822;6.666;2023-01-15T12:20:30;7.20;99.90
55211;DHT22;41082;52.822;6.666;2023-01-15T12:25:40;7.20;99.90
55211;DHT22;41082;52.822;6.666;2023-01-15T12:28:26;7.20;99.90
55211;DHT22;41082;52.822;6.666;2023-01-15T12:33:34;7.30;99.90
55211;DHT22;41082;52.822;6.666;2023-01-15T12:39:43;7.40;99.90
55211;DHT22;41082;52.822;6.666;2023-01-15T12:49:42;7.30;99.90
55211;DHT22;41082;52.822;6.666;2023-01-15T12:52:09;7.20;99.90
55211;DHT22;41082;52.822;6.666;2023-01-15T12:54:55;7.20;99.90
55211;DHT22;41082;52.822;6.666;2023-01-15T12:57:34;7.30;99.90
55211;DHT22;41082;52.822;6.666;2023-01-15T13:02:37;7.40;99.90
55211;DHT22;41082;52.822;6.666;2023-01-15T13:05:19;7.40;99.90
55211;DHT22;41082;52.822;6.666;2023-01-15T13:08:17;7.40;99.90
55211;DHT22;41082;52.822;6.666;2023-01-15T13:10:44;7.30;99.90
55211;DHT22;41082;52.822;6.666;2023-01-15T13:13:33;7.30;99.90
55211;DHT22;41082;52.822;6.666;2023-01-15T13:21:18;7.00;99.90
55211;DHT22;41082;52.822;6.666;2023-01-15T13:29:37;6.90;99.90
55211;DHT22;41082;52.822;6.666;2023-01-15T13:32:20;6.90;99.90
55211;DHT22;41082;52.822;6.666;2023-01-15T13:35:13;6.80;99.90
55211;DHT22;41082;52.822;6.666;2023-01-15T13:37:47;6.80;99.90
55211;DHT22;41082;52.822;6.666;2023-01-15T13:42:52;6.80;99.90
55211;DHT22;41082;52.822;6.666;2023-01-15T13:47:46;6.90;99.90
55211;DHT22;41082;52.822;6.666;2023-01-15T13:50:21;7.00;99.90
55211;DHT22;41082;52.822;6.666;2023-01-15T13:52:48;7.20;99.90
55211;DHT22;41082;52.822;6.666;2023-01-15T13:57:41;7.30;99.90
55211;DHT22;41082;52.822;6.666;2023-01-15T14:02:55;7.40;99.90
55211;DHT22;41082;52.822;6.666;2023-01-15T14:05:32;7.50;99.90
55211;DHT22;41082;52.822;6.666;2023-01-15T14:07:59;7.50;99.90
55211;DHT22;41082;52.822;6.666;2023-01-15T14:10:35;7.50;99.90
55211;DHT22;41082;52.822;6.666;2023-01-15T14:15:36;7.40;99.90
55211;DHT22;41082;52.822;6.666;2023-01-15T14:18:17;7.30;99.90
55211;DHT22;41082;52.822;6.666;2023-01-15T14:32:02;6.40;99.90
55211;DHT22;41082;52.822;6.666;2023-01-15T14:34:33;6.20;99.90
55211;DHT22;41082;52.822;6.666;2023-01-15T14:37:05;6.00;99.90
55211;DHT22;41082;52.822;6.666;2023-01-15T14:39:54;6.00;99.90
55211;DHT22;41082;52.822;6.666;2023-01-15T14:42:33;5.90;99.90
55211;DHT22;41082;52.822;6.666;2023-01-15T14:45:41;5.90;99.90
55211;DHT22;41082;52.822;6.666;2023-01-15T14:48:33;5.90;99.90
55211;DHT22;41082;52.822;6.666;2023-01-15T14:51:15;5.80;99.90
55211;DHT22;41082;52.822;6.666;2023-01-15T14:53:47;5.80;99.90
55211;DHT22;41082;52.822;6.666;2023-01-15T14:56:19;5.80;99.90
55211;DHT22;41082;52.822;6.666;2023-01-15T14:59:00;5.90;99.90
55211;DHT22;41082;52.822;6.666;2023-01-15T15:01:34;5.90;99.90
55211;DHT22;41082;52.822;6.666;2023-01-15T15:04:13;6.00;99.90
55211;DHT22;41082;52.822;6.666;2023-01-15T15:06:54;6.00;99.90
55211;DHT22;41082;52.822;6.666;2023-01-15T15:09:37;6.00;99.90
55211;DHT22;41082;52.822;6.666;2023-01-15T15:12:23;6.10;99.90
55211;DHT22;41082;52.822;6.666;2023-01-15T15:14:58;6.20;99.90
55211;DHT22;41082;52.822;6.666;2023-01-15T15:17:34;6.10;99.90
55211;DHT22;41082;52.822;6.666;2023-01-15T15:22:46;6.20;99.90
55211;DHT22;41082;52.822;6.666;2023-01-15T15:25:20;6.10;99.90
55211;DHT22;41082;52.822;6.666;2023-01-15T15:27:46;6.10;99.90
55211;DHT22;41082;52.822;6.666;2023-01-15T15:30:12;6.10;99.90
55211;DHT22;41082;52.822;6.666;2023-01-15T15:32:42;6.10;99.90
55211;DHT22;41082;52.822;6.666;2023-01-15T15:35:22;6.10;99.90
55211;DHT22;41082;52.822;6.666;2023-01-15T15:37:49;6.10;99.90
55211;DHT22;41082;52.822;6.666;2023-01-15T15:40:16;6.20;99.90
55211;DHT22;41082;52.822;6.666;2023-01-15T15:42:52;6.20;99.90
55211;DHT22;41082;52.822;6.666;2023-01-15T15:45:53;6.20;99.90
55211;DHT22;41082;52.822;6.666;2023-01-15T15:48:38;6.30;99.90
55211;DHT22;41082;52.822;6.666;2023-01-15T15:54:25;6.30;99.90
55211;DHT22;41082;52.822;6.666;2023-01-15T15:57:05;6.20;99.90
55211;DHT22;41082;52.822;6.666;2023-01-15T15:59:47;6.20;99.90
55211;DHT22;41082;52.822;6.666;2023-01-15T16:04:57;6.20;99.90
55211;DHT22;41082;52.822;6.666;2023-01-15T16:07:26;6.20;99.90
55211;DHT22;41082;52.822;6.666;2023-01-15T16:09:56;6.20;99.90
55211;DHT22;41082;52.822;6.666;2023-01-15T16:12:25;6.10;99.90
55211;DHT22;41082;52.822;6.666;2023-01-15T16:14:53;6.20;99.90
55211;DHT22;41082;52.822;6.666;2023-01-15T16:17:19;6.20;99.90
55211;DHT22;41082;52.822;6.666;2023-01-15T16:19:45;6.20;99.90
55211;DHT22;41082;52.822;6.666;2023-01-15T16:22:15;6.20;99.90
55211;DHT22;41082;52.822;6.666;2023-01-15T16:24:52;6.20;99.90
55211;DHT22;41082;52.822;6.666;2023-01-15T16:27:18;6.20;99.90
55211;DHT22;41082;52.822;6.666;2023-01-15T16:29:51;6.20;99.90
55211;DHT22;41082;52.822;6.666;2023-01-15T16:32:23;6.20;99.90
55211;DHT22;41082;52.822;6.666;2023-01-15T16:35:13;6.20;99.90
55211;DHT22;41082;52.822;6.666;2023-01-15T16:37:39;6.20;99.90
55211;DHT22;41082;52.822;6.666;2023-01-15T16:40:05;6.20;99.90
55211;DHT22;41082;52.822;6.666;2023-01-15T16:42:38;6.30;99.90
55211;DHT22;41082;52.822;6.666;2023-01-15T16:45:26;6.30;99.90
55211;DHT22;41082;52.822;6.666;2023-01-15T16:48:10;6.30;99.90
55211;DHT22;41082;52.822;6.666;2023-01-15T16:50:49;6.20;99.90
55211;DHT22;41082;52.822;6.666;2023-01-15T16:53:44;6.30;99.90
55211;DHT22;41082;52.822;6.666;2023-01-15T16:59:04;6.20;99.90
55211;DHT22;41082;52.822;6.666;2023-01-15T17:01:43;6.20;99.90
55211;DHT22;41082;52.822;6.666;2023-01-15T17:04:29;6.20;99.90
55211;DHT22;41082;52.822;6.666;2023-01-15T17:06:58;6.10;99.90
55211;DHT22;41082;52.822;6.666;2023-01-15T17:09:25;6.10;99.90
55211;DHT22;41082;52.822;6.666;2023-01-15T17:11:51;6.10;99.90
55211;DHT22;41082;52.822;6.666;2023-01-15T17:14:23;6.10;99.90
55211;DHT22;41082;52.822;6.666;2023-01-15T17:19:40;6.00;99.90
55211;DHT22;41082;52.822;6.666;2023-01-15T17:22:12;6.00;99.90
55211;DHT22;41082;52.822;6.666;2023-01-15T17:24:49;6.00;99.90
55211;DHT22;41082;52.822;6.666;2023-01-15T17:27:15;6.00;99.90
55211;DHT22;41082;52.822;6.666;2023-01-15T17:29:40;5.90;99.90
55211;DHT22;41082;52.822;6.666;2023-01-15T17:32:12;5.90;99.90
55211;DHT22;41082;52.822;6.666;2023-01-15T17:34:39;5.90;99.90
55211;DHT22;41082;52.822;6.666;2023-01-15T17:37:04;5.90;99.90
55211;DHT22;41082;52.822;6.666;2023-01-15T17:39:30;5.90;99.90
55211;DHT22;41082;52.822;6.666;2023-01-15T17:41:55;5.90;99.90
55211;DHT22;41082;52.822;6.666;2023-01-15T17:44:21;5.80;99.90
55211;DHT22;41082;52.822;6.666;2023-01-15T17:46:47;5.90;99.90
55211;DHT22;41082;52.822;6.666;2023-01-15T17:49:13;5.80;99.90
55211;DHT22;41082;52.822;6.666;2023-01-15T17:51:39;5.80;99.90
55211;DHT22;41082;52.822;6.666;2023-01-15T17:54:05;5.80;99.90
55211;DHT22;41082;52.822;6.666;2023-01-15T17:56:30;5.90;99.90
55211;DHT22;41082;52.822;6.666;2023-01-15T17:59:14;5.80;99.90
55211;DHT22;41082;52.822;6.666;2023-01-15T18:01:59;5.80;99.90
55211;DHT22;41082;52.822;6.666;2023-01-15T18:04:49;5.80;99.90
55211;DHT22;41082;52.822;6.666;2023-01-15T18:07:36;5.80;99.90
55211;DHT22;41082;52.822;6.666;2023-01-15T18:10:09;5.80;99.90
55211;DHT22;41082;52.822;6.666;2023-01-15T18:12:35;5.90;99.90
55211;DHT22;41082;52.822;6.666;2023-01-15T18:15:01;5.80;99.90
55211;DHT22;41082;52.822;6.666;2023-01-15T18:17:26;5.90;99.90
55211;DHT22;41082;52.822;6.666;2023-01-15T18:19:53;5.90;99.90
55211;DHT22;41082;52.822;6.666;2023-01-15T18:22:19;5.90;99.90
55211;DHT22;41082;52.822;6.666;2023-01-15T18:24:44;6.00;99.90